Time,TemperatureF,DewpointF,PressureIn,WindDirection,WindDirectionDegrees,WindSpeedMPH,WindSpeedGustMPH,Humidity,HourlyPrecipIn,Conditions,Clouds,dailyrainin,SolarRadiationWatts/m^2,SoftwareType,DateUTC
2013-02-17 00:00:00,28.1,17.5,29.66,NW,313,7.0,9.0,64,0.00,,OVC021,0.02,0.00,VWS V14.01,2013-02-17 05:00:00,
2013-02-17 00:05:00,28.1,17.5,29.66,NNW,340,4.0,14.0,64,0.00,,OVC021,0.00,0.00,VWS V14.01,2013-02-17 05:05:00,
2013-02-17 00:10:00,28.1,17.5,29.65,NW,311,6.0,12.0,64,0.00,,OVC021,0.00,0.00,VWS V14.01,2013-02-17 05:10:00,
2013-02-17 00:15:00,28.0,17.4,29.63,North,355,8.0,14.0,64,0.00,,OVC021,0.00,0.00,VWS V14.01,2013-02-17 05:15:00,
2013-02-17 00:20:00,28.0,17.4,29.63,NW,323,4.0,11.0,64,0.00,,OVC021,0.00,0.00,VWS V14.01,2013-02-17 05:20:00,
2013-02-17 00:25:00,28.0,17.0,29.62,NNW,348,3.0,17.0,63,0.00,,OVC021,0.00,0.00,VWS V14.01,2013-02-17 05:25:00,
2013-02-17 00:30:00,27.9,17.0,29.63,NNW,333,6.0,12.0,63,0.00,,OVC021,0.00,0.00,VWS V14.01,2013-02-17 05:30:00,
2013-02-17 00:35:00,27.9,17.3,29.62,NNW,340,10.0,10.0,64,0.00,,OVC021,0.00,0.00,VWS V14.01,2013-02-17 05:35:00,
2013-02-17 00:40:00,27.7,17.1,29.62,NNW,342,11.0,15.0,64,0.00,,OVC021,0.00,0.00,VWS V14.01,2013-02-17 05:40:00,
2013-02-17 00:45:00,27.7,17.5,29.62,North,9,5.0,11.0,65,0.00,,OVC021,0.00,0.00,VWS V14.01,2013-02-17 05:45:00,
2013-02-17 00:50:00,27.5,16.9,29.62,NNE,30,9.0,13.0,64,0.00,,OVC021,0.00,0.00,VWS V14.01,2013-02-17 05:50:00,
2013-02-17 00:55:00,27.4,17.2,29.63,North,355,6.0,16.0,65,0.00,,OVC021,0.00,0.00,VWS V14.01,2013-02-17 05:55:00,
2013-02-17 01:00:00,27.2,16.6,29.63,NNE,13,10.0,14.0,64,0.00,,OVC021,0.00,0.00,VWS V14.01,2013-02-17 06:00:00,
2013-02-17 01:05:00,27.1,16.6,29.63,NNE,22,5.0,14.0,64,0.00,,OVC021,0.00,0.00,VWS V14.01,2013-02-17 06:05:00,
2013-02-17 01:10:00,27.1,16.6,29.63,NNW,344,5.0,10.0,64,0.00,,OVC021,0.00,0.00,VWS V14.01,2013-02-17 06:10:00,
2013-02-17 01:15:00,27.0,16.5,29.63,NW,321,7.0,11.0,64,0.00,,OVC021,0.00,0.00,VWS V14.01,2013-02-17 06:15:00,
2013-02-17 01:20:00,26.9,16.4,29.62,North,9,6.0,12.0,64,0.00,,OVC021,0.00,0.00,VWS V14.01,2013-02-17 06:20:00,
2013-02-17 01:25:00,26.8,16.3,29.62,NW,325,4.0,12.0,64,0.00,,OVC021,0.00,0.00,VWS V14.01,2013-02-17 06:25:00,
2013-02-17 01:30:00,26.7,16.2,29.62,WNW,282,12.0,12.0,64,0.00,,OVC021,0.00,0.00,VWS V14.01,2013-02-17 06:30:00,
2013-02-17 01:35:00,26.5,15.6,29.62,NNW,340,8.0,14.0,63,0.00,,OVC021,0.00,0.00,VWS V14.01,2013-02-17 06:35:00,
2013-02-17 01:40:00,26.4,15.5,29.62,NNW,344,7.0,11.0,63,0.00,,OVC021,0.00,0.00,VWS V14.01,2013-02-17 06:40:00,
2013-02-17 01:45:00,26.2,15.3,29.61,NNW,342,10.0,12.0,63,0.00,,OVC021,0.00,0.00,VWS V14.01,2013-02-17 06:45:00,
2013-02-17 01:50:00,26.1,15.2,29.60,North,355,8.0,12.0,63,0.00,,OVC021,0.00,0.00,VWS V14.01,2013-02-17 06:50:00,
2013-02-17 01:55:00,25.8,15.3,29.59,NNW,341,5.0,15.0,64,0.00,,OVC021,0.00,0.00,VWS V14.01,2013-02-17 06:55:00,
2013-02-17 02:00:00,25.7,15.2,29.59,NNW,346,6.0,13.0,64,0.00,,OVC021,0.00,0.00,VWS V14.01,2013-02-17 07:00:00,
2013-02-17 02:05:00,25.6,15.1,29.59,NNW,344,10.0,18.0,64,0.00,,OVC021,0.00,0.00,VWS V14.01,2013-02-17 07:05:00,
2013-02-17 02:10:00,25.6,14.4,29.59,NW,310,4.0,12.0,62,0.00,,OVC021,0.00,0.00,VWS V14.01,2013-02-17 07:10:00,
2013-02-17 02:15:00,25.6,14.4,29.59,NNW,337,13.0,13.0,62,0.00,,OVC021,0.00,0.00,VWS V14.01,2013-02-17 07:15:00,
2013-02-17 02:20:00,25.5,13.9,29.59,NW,324,6.0,14.0,61,0.00,,OVC021,0.00,0.00,VWS V14.01,2013-02-17 07:20:00,
2013-02-17 02:25:00,25.4,13.8,29.59,NNE,24,6.0,13.0,61,0.00,,OVC021,0.00,0.00,VWS V14.01,2013-02-17 07:25:00,
2013-02-17 02:30:00,25.4,13.5,29.59,NW,308,2.0,12.0,60,0.00,,OVC021,0.00,0.00,VWS V14.01,2013-02-17 07:30:00,
2013-02-17 02:35:00,25.5,13.2,29.59,NNE,27,6.0,12.0,59,0.00,,OVC021,0.00,0.00,VWS V14.01,2013-02-17 07:35:00,
2013-02-17 02:40:00,25.5,13.2,29.59,WNW,300,4.0,9.0,59,0.00,,OVC021,0.00,0.00,VWS V14.01,2013-02-17 07:40:00,
2013-02-17 02:45:00,25.6,12.5,29.58,NNW,327,11.0,12.0,57,0.00,,OVC021,0.00,0.00,VWS V14.01,2013-02-17 07:45:00,
2013-02-17 02:50:00,25.6,12.1,29.58,NW,316,8.0,13.0,56,0.00,,OVC021,0.00,0.00,VWS V14.01,2013-02-17 07:50:00,
2013-02-17 02:55:00,25.7,12.6,29.58,NNW,342,4.0,14.0,57,0.00,,OVC021,0.00,0.00,VWS V14.01,2013-02-17 07:55:00,
2013-02-17 03:00:00,25.7,12.6,29.58,NW,323,12.0,13.0,57,0.00,,OVC021,0.00,0.00,VWS V14.01,2013-02-17 08:00:00,
2013-02-17 03:05:00,25.7,12.2,29.56,NW,314,6.0,15.0,56,0.00,,OVC021,0.00,0.00,VWS V14.01,2013-02-17 08:05:00,
2013-02-17 03:10:00,25.6,12.5,29.55,NNW,336,6.0,10.0,57,0.00,,OVC021,0.00,0.00,VWS V14.01,2013-02-17 08:10:00,
2013-02-17 03:15:00,25.5,12.0,29.55,NW,316,5.0,13.0,56,0.00,,OVC021,0.00,0.00,VWS V14.01,2013-02-17 08:15:00,
2013-02-17 03:20:00,25.4,11.9,29.55,NNW,338,11.0,18.0,56,0.00,,OVC021,0.00,0.00,VWS V14.01,2013-02-17 08:20:00,
2013-02-17 03:25:00,25.2,11.3,29.55,North,355,8.0,15.0,55,0.00,,OVC021,0.00,0.00,VWS V14.01,2013-02-17 08:25:00,
2013-02-17 03:30:00,25.1,12.0,29.54,NNW,338,10.0,13.0,57,0.00,,OVC021,0.00,0.00,VWS V14.01,2013-02-17 08:30:00,
2013-02-17 03:35:00,25.0,12.3,29.54,NNW,337,6.0,15.0,58,0.00,,OVC021,0.00,0.00,VWS V14.01,2013-02-17 08:35:00,
2013-02-17 03:40:00,24.8,12.5,29.55,North,360,7.0,18.0,59,0.00,,OVC021,0.00,0.00,VWS V14.01,2013-02-17 08:40:00,
2013-02-17 03:45:00,24.6,12.7,29.55,NW,315,5.0,14.0,60,0.00,,OVC021,0.00,0.00,VWS V14.01,2013-02-17 08:45:00,
2013-02-17 03:50:00,24.2,13.1,29.54,NNW,342,13.0,23.0,62,0.00,,OVC021,0.00,0.00,VWS V14.01,2013-02-17 08:50:00,
2013-02-17 03:55:00,23.9,13.5,29.54,North,355,10.0,18.0,64,0.00,,OVC021,0.00,0.00,VWS V14.01,2013-02-17 08:55:00,
2013-02-17 04:00:00,23.8,14.1,29.53,NW,306,11.0,15.0,66,0.00,,OVC021,0.00,0.00,VWS V14.01,2013-02-17 09:00:00,
2013-02-17 04:05:00,23.4,14.1,29.54,NNW,330,12.0,16.0,67,0.00,,OVC021,0.00,0.00,VWS V14.01,2013-02-17 09:05:00,
2013-02-17 04:10:00,22.9,14.6,29.54,NW,311,9.0,23.0,70,0.00,,OVC021,0.00,0.00,VWS V14.01,2013-02-17 09:10:00,
2013-02-17 04:15:00,22.6,14.9,29.54,NNW,329,9.0,19.0,72,0.00,,OVC021,0.00,0.00,VWS V14.01,2013-02-17 09:15:00,
2013-02-17 04:20:00,22.3,15.3,29.52,NNW,335,8.0,18.0,74,0.00,,OVC021,0.00,0.00,VWS V14.01,2013-02-17 09:20:00,
2013-02-17 04:25:00,22.1,15.4,29.52,NNW,346,11.0,20.0,75,0.00,,OVC021,0.00,0.00,VWS V14.01,2013-02-17 09:25:00,
2013-02-17 04:30:00,21.9,15.5,29.53,North,5,7.0,14.0,76,0.00,,OVC021,0.00,0.00,VWS V14.01,2013-02-17 09:30:00,
2013-02-17 04:35:00,21.8,15.4,29.53,NNW,337,14.0,14.0,76,0.00,,OVC021,0.00,0.00,VWS V14.01,2013-02-17 09:35:00,
2013-02-17 04:40:00,21.8,15.4,29.53,NNW,340,8.0,16.0,76,0.00,,OVC021,0.00,0.00,VWS V14.01,2013-02-17 09:40:00,
2013-02-17 04:45:00,21.8,15.4,29.52,NNW,342,9.0,17.0,76,0.00,,OVC021,0.00,0.00,VWS V14.01,2013-02-17 09:45:00,
2013-02-17 04:50:00,21.8,15.4,29.52,NW,309,7.0,11.0,76,0.00,,OVC021,0.00,0.00,VWS V14.01,2013-02-17 09:50:00,
2013-02-17 04:55:00,21.9,15.2,29.52,NNW,341,8.0,12.0,75,0.00,,OVC021,0.00,0.00,VWS V14.01,2013-02-17 09:55:00,
2013-02-17 05:00:00,21.9,14.9,29.52,NNW,339,5.0,19.0,74,0.00,,OVC021,0.00,0.00,VWS V14.01,2013-02-17 10:00:00,
2013-02-17 05:05:00,21.9,14.6,29.51,NW,316,8.0,18.0,73,0.00,,OVC021,0.00,0.00,VWS V14.01,2013-02-17 10:05:00,
2013-02-17 05:10:00,21.9,14.0,29.51,NW,321,9.0,21.0,71,0.00,,OVC021,0.00,0.00,VWS V14.01,2013-02-17 10:10:00,
2013-02-17 05:15:00,21.8,14.2,29.51,WNW,285,13.0,20.0,72,0.00,,OVC021,0.00,0.00,VWS V14.01,2013-02-17 10:15:00,
2013-02-17 05:20:00,21.4,14.1,29.50,WNW,292,9.0,17.0,73,0.00,,OVC021,0.00,0.00,VWS V14.01,2013-02-17 10:20:00,
2013-02-17 05:25:00,21.1,14.4,29.50,WNW,293,8.0,14.0,75,0.00,,OVC021,0.00,0.00,VWS V14.01,2013-02-17 10:25:00,
2013-02-17 05:30:00,20.8,14.4,29.50,NW,325,7.0,13.0,76,0.00,,OVC021,0.00,0.00,VWS V14.01,2013-02-17 10:30:00,
2013-02-17 05:35:00,20.5,14.7,29.50,NNW,340,10.0,20.0,78,0.00,,OVC021,0.00,0.00,VWS V14.01,2013-02-17 10:35:00,
2013-02-17 05:40:00,20.2,15.0,29.49,NW,313,6.0,15.0,80,0.00,,OVC021,0.00,0.00,VWS V14.01,2013-02-17 10:40:00,
2013-02-17 05:45:00,19.9,15.3,29.49,NW,320,17.0,19.0,82,0.00,,OVC021,0.00,0.00,VWS V14.01,2013-02-17 10:45:00,
2013-02-17 05:50:00,19.6,15.3,29.49,NW,317,6.0,20.0,83,0.00,,OVC021,0.00,0.00,VWS V14.01,2013-02-17 10:50:00,
2013-02-17 05:55:00,19.3,15.5,29.50,NNW,344,9.0,20.0,85,0.00,,OVC021,0.00,0.00,VWS V14.01,2013-02-17 10:55:00,
2013-02-17 06:00:00,19.2,15.7,29.50,NW,318,10.0,15.0,86,0.00,,OVC021,0.00,0.00,VWS V14.01,2013-02-17 11:00:00,
2013-02-17 06:05:00,19.1,15.6,29.49,NW,309,11.0,12.0,86,0.00,,OVC021,0.00,0.00,VWS V14.01,2013-02-17 11:05:00,
2013-02-17 06:10:00,18.9,15.7,29.48,WNW,299,8.0,16.0,87,0.00,,OVC021,0.00,0.00,VWS V14.01,2013-02-17 11:10:00,
2013-02-17 06:15:00,18.7,15.5,29.48,NW,321,15.0,16.0,87,0.00,,OVC021,0.00,0.00,VWS V14.01,2013-02-17 11:15:00,
2013-02-17 06:20:00,18.6,15.4,29.48,NW,319,8.0,19.0,87,0.00,,OVC021,0.00,0.00,VWS V14.01,2013-02-17 11:20:00,
2013-02-17 06:25:00,18.4,15.2,29.48,NW,309,10.0,23.0,87,0.00,,OVC021,0.00,0.00,VWS V14.01,2013-02-17 11:25:00,
2013-02-17 06:30:00,18.3,15.1,29.47,WNW,290,4.0,22.0,87,0.00,,OVC021,0.00,0.00,VWS V14.01,2013-02-17 11:30:00,
2013-02-17 06:35:00,18.1,14.9,29.46,NW,309,16.0,23.0,87,0.00,,OVC021,0.00,0.00,VWS V14.01,2013-02-17 11:35:00,
2013-02-17 06:40:00,18.0,14.8,29.45,NNW,333,12.0,21.0,87,0.00,,OVC021,0.00,0.00,VWS V14.01,2013-02-17 11:40:00,
2013-02-17 06:45:00,17.9,14.7,29.44,NW,309,9.0,22.0,87,0.00,,OVC021,0.00,0.00,VWS V14.01,2013-02-17 11:45:00,
2013-02-17 06:50:00,17.8,14.6,29.45,NW,308,19.0,19.0,87,0.00,,OVC021,0.00,0.00,VWS V14.01,2013-02-17 11:50:00,
2013-02-17 06:55:00,17.8,14.6,29.45,NW,323,7.0,19.0,87,0.00,,OVC021,0.00,0.00,VWS V14.01,2013-02-17 11:55:00,
2013-02-17 07:00:00,17.7,14.5,29.45,NW,313,15.0,23.0,87,0.00,,OVC021,0.00,0.00,VWS V14.01,2013-02-17 12:00:00,
2013-02-17 07:05:00,17.7,14.5,29.44,NNW,334,11.0,22.0,87,0.00,,OVC021,0.00,0.00,VWS V14.01,2013-02-17 12:05:00,
2013-02-17 07:10:00,17.6,14.4,29.45,NNW,333,12.0,24.0,87,0.00,,OVC021,0.00,5.00,VWS V14.01,2013-02-17 12:10:00,
2013-02-17 07:15:00,17.6,14.4,29.43,NW,325,19.0,24.0,87,0.00,,OVC021,0.00,7.00,VWS V14.01,2013-02-17 12:15:00,
2013-02-17 07:20:00,17.5,14.3,29.43,WNW,297,10.0,22.0,87,0.00,,OVC021,0.00,9.00,VWS V14.01,2013-02-17 12:20:00,
2013-02-17 07:25:00,17.4,14.2,29.42,NW,307,10.0,21.0,87,0.00,,OVC021,0.00,9.00,VWS V14.01,2013-02-17 12:25:00,
2013-02-17 07:30:00,17.4,14.2,29.43,NW,323,17.0,19.0,87,0.00,,OVC021,0.00,11.00,VWS V14.01,2013-02-17 12:30:00,
2013-02-17 07:35:00,17.4,14.2,29.43,NNW,330,10.0,21.0,87,0.00,,OVC021,0.00,16.00,VWS V14.01,2013-02-17 12:35:00,
2013-02-17 07:40:00,17.3,14.1,29.42,NW,317,12.0,19.0,87,0.00,,OVC021,0.00,14.00,VWS V14.01,2013-02-17 12:40:00,
2013-02-17 07:45:00,17.2,14.0,29.42,NW,317,12.0,19.0,87,0.00,,OVC021,0.00,16.00,VWS V14.01,2013-02-17 12:45:00,
2013-02-17 07:50:00,17.1,13.9,29.42,NNW,329,19.0,21.0,87,0.00,,OVC021,0.00,19.00,VWS V14.01,2013-02-17 12:50:00,
2013-02-17 07:55:00,17.1,13.9,29.42,North,355,11.0,20.0,87,0.00,,OVC021,0.00,19.00,VWS V14.01,2013-02-17 12:55:00,
2013-02-17 08:00:00,17.0,13.8,29.42,NNW,327,11.0,19.0,87,0.00,,OVC021,0.00,21.00,VWS V14.01,2013-02-17 13:00:00,
2013-02-17 08:05:00,16.9,13.4,29.41,WNW,296,18.0,23.0,86,0.00,,OVC021,0.00,25.00,VWS V14.01,2013-02-17 13:05:00,
2013-02-17 08:10:00,16.9,13.4,29.41,NW,319,5.0,20.0,86,0.00,,OVC021,0.00,25.00,VWS V14.01,2013-02-17 13:10:00,
2013-02-17 08:15:00,16.8,13.4,29.40,NNW,346,14.0,21.0,86,0.00,,OVC021,0.00,26.00,VWS V14.01,2013-02-17 13:15:00,
2013-02-17 08:20:00,16.8,13.6,29.40,WNW,300,13.0,21.0,87,0.00,,OVC021,0.00,28.00,VWS V14.01,2013-02-17 13:20:00,
2013-02-17 08:25:00,16.8,13.6,29.40,WNW,296,10.0,20.0,87,0.00,,OVC021,0.00,30.00,VWS V14.01,2013-02-17 13:25:00,
2013-02-17 08:30:00,16.8,13.6,29.40,WNW,302,10.0,26.0,87,0.00,,OVC021,0.00,35.00,VWS V14.01,2013-02-17 13:30:00,
2013-02-17 08:35:00,16.8,13.6,29.40,NW,321,8.0,21.0,87,0.00,,OVC021,0.00,39.00,VWS V14.01,2013-02-17 13:35:00,
2013-02-17 08:40:00,16.8,13.6,29.39,WNW,299,12.0,20.0,87,0.00,,OVC021,0.00,40.00,VWS V14.01,2013-02-17 13:40:00,
2013-02-17 08:45:00,16.8,13.6,29.39,NW,309,12.0,24.0,87,0.00,,OVC021,0.00,42.00,VWS V14.01,2013-02-17 13:45:00,
2013-02-17 08:50:00,16.8,13.6,29.39,NW,320,21.0,25.0,87,0.00,,OVC021,0.00,44.00,VWS V14.01,2013-02-17 13:50:00,
2013-02-17 08:55:00,16.9,13.7,29.38,NNW,333,10.0,21.0,87,0.00,,OVC021,0.00,46.00,VWS V14.01,2013-02-17 13:55:00,
2013-02-17 09:00:00,16.9,13.7,29.38,NNW,329,8.0,22.0,87,0.00,,OVC021,0.00,47.00,VWS V14.01,2013-02-17 14:00:00,
2013-02-17 09:05:00,16.9,13.7,29.38,NNW,328,13.0,19.0,87,0.00,,OVC021,0.00,49.00,VWS V14.01,2013-02-17 14:05:00,
2013-02-17 09:10:00,16.9,13.7,29.37,NW,326,19.0,21.0,87,0.00,,OVC021,0.00,51.00,VWS V14.01,2013-02-17 14:10:00,
2013-02-17 09:15:00,16.9,13.7,29.36,NW,319,17.0,22.0,87,0.00,,OVC021,0.00,53.00,VWS V14.01,2013-02-17 14:15:00,
2013-02-17 09:20:00,16.8,13.6,29.36,NW,306,16.0,28.0,87,0.00,,OVC021,0.00,56.00,VWS V14.01,2013-02-17 14:20:00,
2013-02-17 09:25:00,16.8,13.6,29.36,North,355,14.0,20.0,87,0.00,,OVC021,0.00,58.00,VWS V14.01,2013-02-17 14:25:00,
2013-02-17 09:30:00,16.8,13.6,29.36,NW,325,11.0,23.0,87,0.00,,OVC021,0.00,62.00,VWS V14.01,2013-02-17 14:30:00,
2013-02-17 09:35:00,16.7,13.5,29.35,NW,318,18.0,23.0,87,0.00,,OVC021,0.00,62.00,VWS V14.01,2013-02-17 14:35:00,
2013-02-17 09:40:00,16.8,13.6,29.36,NW,312,9.0,18.0,87,0.00,,OVC021,0.00,62.00,VWS V14.01,2013-02-17 14:40:00,
2013-02-17 09:45:00,16.8,13.6,29.36,NW,310,16.0,20.0,87,0.00,,OVC021,0.00,65.00,VWS V14.01,2013-02-17 14:45:00,
2013-02-17 09:50:00,16.8,13.6,29.35,NNW,330,18.0,21.0,87,0.00,,OVC021,0.00,65.00,VWS V14.01,2013-02-17 14:50:00,
2013-02-17 09:55:00,16.8,13.6,29.35,North,350,9.0,18.0,87,0.00,,OVC021,0.00,67.00,VWS V14.01,2013-02-17 14:55:00,
2013-02-17 10:00:00,16.8,13.6,29.35,NW,323,11.0,26.0,87,0.00,,OVC021,0.00,69.00,VWS V14.01,2013-02-17 15:00:00,
2013-02-17 10:05:00,16.9,13.7,29.35,WNW,296,16.0,21.0,87,0.00,,OVC021,0.00,72.00,VWS V14.01,2013-02-17 15:05:00,
2013-02-17 10:10:00,16.9,13.7,29.35,NNW,327,9.0,21.0,87,0.00,,OVC021,0.00,74.00,VWS V14.01,2013-02-17 15:10:00,
2013-02-17 10:15:00,17.0,13.8,29.35,NW,323,21.0,22.0,87,0.00,,OVC021,0.00,77.00,VWS V14.01,2013-02-17 15:15:00,
2013-02-17 10:20:00,17.0,13.8,29.34,NNW,344,10.0,24.0,87,0.00,,OVC021,0.00,83.00,VWS V14.01,2013-02-17 15:20:00,
2013-02-17 10:25:00,17.1,13.9,29.34,NW,304,16.0,23.0,87,0.00,,OVC021,0.00,88.00,VWS V14.01,2013-02-17 15:25:00,
2013-02-17 10:30:00,17.1,13.6,29.34,NNW,327,14.0,30.0,86,0.00,,OVC021,0.00,93.00,VWS V14.01,2013-02-17 15:30:00,
2013-02-17 10:35:00,17.2,13.7,29.34,NW,317,14.0,20.0,86,0.00,,OVC021,0.00,97.00,VWS V14.01,2013-02-17 15:35:00,
2013-02-17 10:40:00,17.2,13.7,29.34,NW,321,12.0,28.0,86,0.00,,OVC021,0.00,98.00,VWS V14.01,2013-02-17 15:40:00,
2013-02-17 10:45:00,17.3,14.1,29.34,North,11,8.0,16.0,87,0.00,,OVC021,0.00,102.00,VWS V14.01,2013-02-17 15:45:00,
2013-02-17 10:50:00,17.3,13.8,29.33,NW,305,12.0,19.0,86,0.00,,OVC021,0.00,104.00,VWS V14.01,2013-02-17 15:50:00,
2013-02-17 10:55:00,17.4,13.9,29.33,NNW,331,8.0,23.0,86,0.00,,OVC021,0.00,102.00,VWS V14.01,2013-02-17 15:55:00,
2013-02-17 11:00:00,17.4,13.9,29.34,WNW,293,12.0,30.0,86,0.00,,OVC021,0.00,98.00,VWS V14.01,2013-02-17 16:00:00,
2013-02-17 11:05:00,17.5,14.0,29.33,NNW,327,18.0,22.0,86,0.00,,OVC021,0.00,97.00,VWS V14.01,2013-02-17 16:05:00,
2013-02-17 11:10:00,17.5,14.0,29.34,NW,325,15.0,18.0,86,0.00,,OVC021,0.00,98.00,VWS V14.01,2013-02-17 16:10:00,
2013-02-17 11:15:00,17.5,13.8,29.33,WNW,287,12.0,30.0,85,0.00,,OVC021,0.00,98.00,VWS V14.01,2013-02-17 16:15:00,
2013-02-17 11:20:00,17.6,13.9,29.33,NNW,341,8.0,24.0,85,0.00,,OVC021,0.00,100.00,VWS V14.01,2013-02-17 16:20:00,
2013-02-17 11:25:00,17.7,14.0,29.33,WNW,302,11.0,21.0,85,0.00,,OVC021,0.00,102.00,VWS V14.01,2013-02-17 16:25:00,
2013-02-17 11:30:00,17.7,14.0,29.33,NW,319,11.0,24.0,85,0.00,,OVC021,0.00,105.00,VWS V14.01,2013-02-17 16:30:00,
2013-02-17 11:35:00,17.7,13.7,29.33,NW,310,12.0,24.0,84,0.00,,OVC021,0.00,109.00,VWS V14.01,2013-02-17 16:35:00,
2013-02-17 11:40:00,17.8,13.8,29.34,NW,326,10.0,26.0,84,0.00,,OVC021,0.00,109.00,VWS V14.01,2013-02-17 16:40:00,
2013-02-17 11:45:00,17.8,13.8,29.33,NW,306,11.0,27.0,84,0.00,,OVC021,0.00,113.00,VWS V14.01,2013-02-17 16:45:00,
2013-02-17 11:50:00,17.9,13.9,29.33,WNW,300,14.0,19.0,84,0.00,,OVC021,0.00,114.00,VWS V14.01,2013-02-17 16:50:00,
2013-02-17 11:55:00,18.1,14.1,29.33,NW,305,17.0,24.0,84,0.00,,OVC021,0.00,114.00,VWS V14.01,2013-02-17 16:55:00,
2013-02-17 12:00:00,18.2,13.9,29.34,NNW,329,15.0,27.0,83,0.00,,OVC021,0.00,116.00,VWS V14.01,2013-02-17 17:00:00,
2013-02-17 12:05:00,18.3,13.5,29.33,NW,325,15.0,22.0,81,0.00,,OVC021,0.00,116.00,VWS V14.01,2013-02-17 17:05:00,
2013-02-17 12:10:00,18.4,13.3,29.33,WNW,298,20.0,28.0,80,0.00,,OVC021,0.00,116.00,VWS V14.01,2013-02-17 17:10:00,
2013-02-17 12:15:00,18.5,13.1,29.34,NW,311,9.0,22.0,79,0.00,,OVC021,0.00,121.00,VWS V14.01,2013-02-17 17:15:00,
2013-02-17 12:20:00,18.6,13.2,29.33,WNW,292,12.0,19.0,79,0.00,,OVC021,0.00,125.00,VWS V14.01,2013-02-17 17:20:00,
2013-02-17 12:25:00,18.7,13.6,29.33,WNW,292,13.0,25.0,80,0.00,,OVC021,0.00,134.00,VWS V14.01,2013-02-17 17:25:00,
2013-02-17 12:30:00,18.8,13.4,29.33,NNW,330,7.0,23.0,79,0.00,,OVC021,0.00,134.00,VWS V14.01,2013-02-17 17:30:00,
2013-02-17 12:35:00,18.8,13.7,29.34,WNW,302,6.0,18.0,80,0.00,,OVC021,0.00,132.00,VWS V14.01,2013-02-17 17:35:00,
2013-02-17 12:40:00,18.9,13.8,29.34,NW,313,11.0,21.0,80,0.00,,OVC021,0.00,134.00,VWS V14.01,2013-02-17 17:40:00,
2013-02-17 12:45:00,18.9,13.8,29.34,NW,309,7.0,19.0,80,0.00,,OVC021,0.00,128.00,VWS V14.01,2013-02-17 17:45:00,
2013-02-17 12:50:00,18.9,13.8,29.34,WNW,290,12.0,19.0,80,0.00,,OVC021,0.00,134.00,VWS V14.01,2013-02-17 17:50:00,
2013-02-17 12:55:00,18.9,13.8,29.34,NNW,340,6.0,18.0,80,0.00,,OVC021,0.00,130.00,VWS V14.01,2013-02-17 17:55:00,
2013-02-17 13:00:00,18.8,13.4,29.34,NW,307,17.0,27.0,79,0.00,,OVC021,0.00,132.00,VWS V14.01,2013-02-17 18:00:00,
2013-02-17 13:05:00,18.8,13.4,29.33,WNW,290,11.0,21.0,79,0.00,,OVC021,0.00,137.00,VWS V14.01,2013-02-17 18:05:00,
2013-02-17 13:10:00,18.9,12.9,29.34,West,267,9.0,24.0,77,0.00,,OVC021,0.00,134.00,VWS V14.01,2013-02-17 18:10:00,
2013-02-17 13:15:00,18.9,12.6,29.34,NW,313,9.0,23.0,76,0.00,,OVC021,0.00,135.00,VWS V14.01,2013-02-17 18:15:00,
2013-02-17 13:20:00,19.1,12.2,29.34,NNW,346,17.0,24.0,74,0.00,,OVC021,0.00,132.00,VWS V14.01,2013-02-17 18:20:00,
2013-02-17 13:25:00,19.3,11.8,29.35,NNW,336,26.0,26.0,72,0.00,,OVC021,0.00,128.00,VWS V14.01,2013-02-17 18:25:00,
2013-02-17 13:30:00,19.4,11.2,29.35,NW,304,18.0,26.0,70,0.00,,OVC021,0.00,125.00,VWS V14.01,2013-02-17 18:30:00,
2013-02-17 13:35:00,19.6,10.4,29.34,North,360,19.0,22.0,67,0.00,,OVC021,0.00,127.00,VWS V14.01,2013-02-17 18:35:00,
2013-02-17 13:40:00,20.0,9.8,29.34,WNW,292,9.0,26.0,64,0.00,,OVC021,0.00,134.00,VWS V14.01,2013-02-17 18:40:00,
2013-02-17 13:45:00,20.3,10.1,29.34,WNW,299,7.0,21.0,64,0.00,,OVC021,0.00,132.00,VWS V14.01,2013-02-17 18:45:00,
2013-02-17 13:50:00,20.7,9.0,29.34,NW,309,19.0,27.0,60,0.00,,OVC021,0.00,130.00,VWS V14.01,2013-02-17 18:50:00,
2013-02-17 13:55:00,20.7,8.6,29.34,NNW,339,12.0,34.0,59,0.00,,OVC021,0.00,137.00,VWS V14.01,2013-02-17 18:55:00,
2013-02-17 14:00:00,21.0,8.2,29.34,NW,323,17.0,25.0,57,0.00,,OVC021,0.00,146.00,VWS V14.01,2013-02-17 19:00:00,
2013-02-17 14:05:00,21.2,8.0,29.34,NW,319,13.0,18.0,56,0.00,,OVC021,0.00,149.00,VWS V14.01,2013-02-17 19:05:00,
2013-02-17 14:10:00,21.4,6.9,29.34,WNW,294,8.0,30.0,53,0.00,,OVC021,0.00,153.00,VWS V14.01,2013-02-17 19:10:00,
2013-02-17 14:15:00,21.2,6.8,29.35,NW,311,22.0,29.0,53,0.00,,OVC021,0.00,149.00,VWS V14.01,2013-02-17 19:15:00,
2013-02-17 14:20:00,21.1,5.8,29.34,NW,315,16.0,30.0,51,0.00,,OVC021,0.00,146.00,VWS V14.01,2013-02-17 19:20:00,
2013-02-17 14:25:00,21.1,5.4,29.35,NW,308,21.0,30.0,50,0.00,,OVC021,0.00,148.00,VWS V14.01,2013-02-17 19:25:00,
2013-02-17 14:30:00,21.3,5.1,29.35,NW,314,20.0,30.0,49,0.00,,OVC021,0.00,153.00,VWS V14.01,2013-02-17 19:30:00,
2013-02-17 14:35:00,21.2,4.6,29.36,WNW,302,12.0,34.0,48,0.00,,OVC021,0.00,151.00,VWS V14.01,2013-02-17 19:35:00,
2013-02-17 14:40:00,21.3,4.7,29.34,WNW,297,12.0,32.0,48,0.00,,OVC021,0.00,149.00,VWS V14.01,2013-02-17 19:40:00,
2013-02-17 14:45:00,21.6,4.5,29.35,NW,318,15.0,23.0,47,0.00,,OVC021,0.00,146.00,VWS V14.01,2013-02-17 19:45:00,
2013-02-17 14:50:00,21.6,4.0,29.35,NW,313,27.0,33.0,46,0.00,,OVC021,0.00,144.00,VWS V14.01,2013-02-17 19:50:00,
2013-02-17 14:55:00,21.6,3.5,29.36,NW,317,25.0,27.0,45,0.00,,OVC021,0.00,141.00,VWS V14.01,2013-02-17 19:55:00,
2013-02-17 15:00:00,21.9,3.8,29.35,WNW,282,12.0,30.0,45,0.00,,OVC021,0.00,135.00,VWS V14.01,2013-02-17 20:00:00,
2013-02-17 15:05:00,21.9,3.3,29.36,NW,308,13.0,29.0,44,0.00,,OVC021,0.00,130.00,VWS V14.01,2013-02-17 20:05:00,
2013-02-17 15:10:00,22.0,3.9,29.37,WNW,303,6.0,22.0,45,0.00,,OVC021,0.00,125.00,VWS V14.01,2013-02-17 20:10:00,
2013-02-17 15:15:00,22.0,3.9,29.37,NNW,339,18.0,22.0,45,0.00,,OVC021,0.00,120.00,VWS V14.01,2013-02-17 20:15:00,
2013-02-17 15:20:00,21.5,3.9,29.37,NW,315,17.0,24.0,46,0.00,,OVC021,0.00,114.00,VWS V14.01,2013-02-17 20:20:00,
2013-02-17 15:25:00,21.2,3.7,29.37,WNW,284,9.0,38.0,46,0.00,,OVC021,0.00,111.00,VWS V14.01,2013-02-17 20:25:00,
2013-02-17 15:30:00,21.0,3.5,29.37,NW,304,12.0,35.0,46,0.00,,OVC021,0.00,104.00,VWS V14.01,2013-02-17 20:30:00,
2013-02-17 15:35:00,20.9,3.4,29.38,NNW,333,17.0,28.0,46,0.00,,OVC021,0.00,100.00,VWS V14.01,2013-02-17 20:35:00,
2013-02-17 15:40:00,20.7,3.7,29.37,West,265,24.0,31.0,47,0.00,,OVC021,0.00,97.00,VWS V14.01,2013-02-17 20:40:00,
2013-02-17 15:45:00,20.6,3.1,29.39,WNW,287,21.0,34.0,46,0.00,,OVC021,0.00,90.00,VWS V14.01,2013-02-17 20:45:00,
2013-02-17 15:50:00,20.5,3.0,29.38,NNW,327,13.0,28.0,46,0.00,,OVC021,0.00,84.00,VWS V14.01,2013-02-17 20:50:00,
2013-02-17 15:55:00,20.5,3.5,29.39,WNW,289,22.0,29.0,47,0.00,,OVC021,0.00,79.00,VWS V14.01,2013-02-17 20:55:00,
2013-02-17 16:00:00,20.4,2.9,29.39,NW,314,16.0,28.0,46,0.00,,OVC021,0.00,72.00,VWS V14.01,2013-02-17 21:00:00,
2013-02-17 16:05:00,20.4,3.4,29.39,NW,311,14.0,32.0,47,0.00,,OVC021,0.00,62.00,VWS V14.01,2013-02-17 21:05:00,
2013-02-17 16:10:00,20.4,2.9,29.40,WNW,296,18.0,30.0,46,0.00,,OVC021,0.00,51.00,VWS V14.01,2013-02-17 21:10:00,
2013-02-17 16:15:00,20.4,2.5,29.39,WNW,286,14.0,23.0,45,0.00,,OVC021,0.00,46.00,VWS V14.01,2013-02-17 21:15:00,
2013-02-17 16:20:00,20.4,2.5,29.40,WNW,294,13.0,30.0,45,0.00,,OVC021,0.00,40.00,VWS V14.01,2013-02-17 21:20:00,
2013-02-17 16:25:00,20.4,2.9,29.40,NW,315,23.0,23.0,46,0.00,,OVC021,0.00,39.00,VWS V14.01,2013-02-17 21:25:00,
2013-02-17 16:30:00,20.4,2.0,29.40,WNW,302,16.0,29.0,44,0.00,,OVC021,0.00,33.00,VWS V14.01,2013-02-17 21:30:00,
2013-02-17 16:35:00,20.3,2.4,29.41,West,274,14.0,22.0,45,0.00,,OVC021,0.00,30.00,VWS V14.01,2013-02-17 21:35:00,
2013-02-17 16:40:00,20.3,2.4,29.41,West,281,16.0,25.0,45,0.00,,OVC021,0.00,26.00,VWS V14.01,2013-02-17 21:40:00,
2013-02-17 16:45:00,20.3,1.9,29.42,NW,311,10.0,24.0,44,0.00,,OVC021,0.00,21.00,VWS V14.01,2013-02-17 21:45:00,
2013-02-17 16:50:00,20.3,1.9,29.42,West,281,16.0,28.0,44,0.00,,OVC021,0.00,18.00,VWS V14.01,2013-02-17 21:50:00,
2013-02-17 16:55:00,20.3,2.4,29.43,WNW,296,13.0,28.0,45,0.00,,OVC021,0.00,14.00,VWS V14.01,2013-02-17 21:55:00,
2013-02-17 17:00:00,20.2,1.8,29.43,NW,311,23.0,30.0,44,0.00,,OVC021,0.00,11.00,VWS V14.01,2013-02-17 22:00:00,
2013-02-17 17:05:00,20.2,2.3,29.43,NNE,31,13.0,26.0,45,0.00,,OVC021,0.00,7.00,VWS V14.01,2013-02-17 22:05:00,
2013-02-17 17:10:00,20.2,1.8,29.43,WNW,290,18.0,31.0,44,0.00,,OVC021,0.00,5.00,VWS V14.01,2013-02-17 22:10:00,
2013-02-17 17:15:00,20.3,1.9,29.44,WNW,296,24.0,28.0,44,0.00,,OVC021,0.00,0.00,VWS V14.01,2013-02-17 22:15:00,
2013-02-17 17:20:00,20.3,1.9,29.44,West,275,16.0,28.0,44,0.00,,OVC021,0.00,0.00,VWS V14.01,2013-02-17 22:20:00,
2013-02-17 17:25:00,20.3,1.9,29.44,West,264,23.0,24.0,44,0.00,,OVC021,0.00,0.00,VWS V14.01,2013-02-17 22:25:00,
2013-02-17 17:30:00,20.3,1.9,29.44,WNW,301,9.0,35.0,44,0.00,,OVC021,0.00,0.00,VWS V14.01,2013-02-17 22:30:00,
2013-02-17 17:35:00,20.4,2.0,29.44,WNW,290,19.0,28.0,44,0.00,,OVC021,0.00,0.00,VWS V14.01,2013-02-17 22:35:00,
2013-02-17 17:40:00,20.4,2.0,29.44,WNW,285,23.0,32.0,44,0.00,,OVC021,0.00,0.00,VWS V14.01,2013-02-17 22:40:00,
2013-02-17 17:45:00,20.4,2.0,29.46,NW,304,10.0,29.0,44,0.00,,OVC021,0.00,0.00,VWS V14.01,2013-02-17 22:45:00,
2013-02-17 17:50:00,20.4,2.0,29.45,WNW,298,16.0,30.0,44,0.00,,OVC021,0.00,0.00,VWS V14.01,2013-02-17 22:50:00,
2013-02-17 17:55:00,20.4,2.0,29.44,NNW,344,12.0,35.0,44,0.00,,OVC021,0.00,0.00,VWS V14.01,2013-02-17 22:55:00,
2013-02-17 18:00:00,20.3,1.9,29.44,NW,305,19.0,36.0,44,0.00,,OVC021,0.00,0.00,VWS V14.01,2013-02-17 23:00:00,
2013-02-17 18:05:00,20.3,1.9,29.46,WNW,294,18.0,36.0,44,0.00,,OVC021,0.00,0.00,VWS V14.01,2013-02-17 23:05:00,
2013-02-17 18:10:00,20.4,2.0,29.45,West,281,25.0,26.0,44,0.00,,OVC021,0.00,0.00,VWS V14.01,2013-02-17 23:10:00,
2013-02-17 18:15:00,20.4,2.0,29.46,WNW,302,13.0,30.0,44,0.00,,OVC021,0.00,0.00,VWS V14.01,2013-02-17 23:15:00,
2013-02-17 18:20:00,20.3,1.9,29.46,NW,311,21.0,31.0,44,0.00,,OVC021,0.00,0.00,VWS V14.01,2013-02-17 23:20:00,
2013-02-17 18:25:00,20.3,1.9,29.47,WNW,292,22.0,30.0,44,0.00,,OVC021,0.00,0.00,VWS V14.01,2013-02-17 23:25:00,
2013-02-17 18:30:00,20.3,1.9,29.46,WNW,302,17.0,31.0,44,0.00,,OVC021,0.00,0.00,VWS V14.01,2013-02-17 23:30:00,
2013-02-17 18:35:00,20.3,1.9,29.46,NW,319,14.0,21.0,44,0.00,,OVC021,0.00,0.00,VWS V14.01,2013-02-17 23:35:00,
2013-02-17 18:40:00,20.3,1.9,29.46,WNW,294,12.0,29.0,44,0.00,,OVC021,0.00,0.00,VWS V14.01,2013-02-17 23:40:00,
2013-02-17 18:45:00,20.3,1.9,29.46,WNW,299,11.0,27.0,44,0.00,,OVC021,0.00,0.00,VWS V14.01,2013-02-17 23:45:00,
2013-02-17 18:50:00,20.3,1.9,29.47,WNW,302,25.0,35.0,44,0.00,,OVC021,0.00,0.00,VWS V14.01,2013-02-17 23:50:00,
2013-02-17 18:55:00,20.3,1.9,29.47,WNW,285,15.0,30.0,44,0.00,,OVC021,0.00,0.00,VWS V14.01,2013-02-17 23:55:00,
2013-02-17 19:00:00,20.2,2.3,29.47,WNW,302,12.0,21.0,45,0.00,,OVC021,0.00,0.00,VWS V14.01,2013-02-18 00:00:00,
2013-02-17 19:05:00,20.2,1.8,29.47,West,280,11.0,25.0,44,0.00,,OVC021,0.00,0.00,VWS V14.01,2013-02-18 00:05:00,
2013-02-17 19:10:00,20.2,1.3,29.47,NW,315,16.0,33.0,43,0.00,,OVC021,0.00,0.00,VWS V14.01,2013-02-18 00:10:00,
2013-02-17 19:15:00,20.2,1.3,29.49,West,277,17.0,32.0,43,0.00,,OVC021,0.00,0.00,VWS V14.01,2013-02-18 00:15:00,
2013-02-17 19:20:00,20.2,1.3,29.47,West,275,16.0,33.0,43,0.00,,OVC021,0.00,0.00,VWS V14.01,2013-02-18 00:20:00,
2013-02-17 19:25:00,20.1,1.7,29.47,NW,315,16.0,25.0,44,0.00,,OVC021,0.00,0.00,VWS V14.01,2013-02-18 00:25:00,
2013-02-17 19:30:00,20.1,1.7,29.48,West,280,9.0,27.0,44,0.00,,OVC021,0.00,0.00,VWS V14.01,2013-02-18 00:30:00,
2013-02-17 19:35:00,20.1,1.7,29.48,WNW,292,11.0,30.0,44,0.00,,OVC021,0.00,0.00,VWS V14.01,2013-02-18 00:35:00,
2013-02-17 19:40:00,20.0,1.6,29.48,WNW,293,13.0,22.0,44,0.00,,OVC021,0.00,0.00,VWS V14.01,2013-02-18 00:40:00,
2013-02-17 19:45:00,19.9,2.0,29.48,NNW,330,14.0,26.0,45,0.00,,OVC021,0.00,0.00,VWS V14.01,2013-02-18 00:45:00,
2013-02-17 19:50:00,19.9,1.5,29.48,NNW,327,18.0,26.0,44,0.00,,OVC021,0.00,0.00,VWS V14.01,2013-02-18 00:50:00,
2013-02-17 19:55:00,20.0,1.6,29.48,WNW,302,12.0,22.0,44,0.00,,OVC021,0.00,0.00,VWS V14.01,2013-02-18 00:55:00,
2013-02-17 20:00:00,20.0,1.6,29.48,West,265,14.0,22.0,44,0.00,,OVC021,0.00,0.00,VWS V14.01,2013-02-18 01:00:00,
2013-02-17 20:05:00,19.9,2.0,29.49,West,273,7.0,17.0,45,0.00,,OVC021,0.00,0.00,VWS V14.01,2013-02-18 01:05:00,
2013-02-17 20:10:00,19.9,2.0,29.49,WNW,284,13.0,20.0,45,0.00,,OVC021,0.00,0.00,VWS V14.01,2013-02-18 01:10:00,
2013-02-17 20:15:00,19.8,1.9,29.49,WNW,302,5.0,18.0,45,0.00,,OVC021,0.00,0.00,VWS V14.01,2013-02-18 01:15:00,
2013-02-17 20:20:00,19.8,1.9,29.50,WNW,287,14.0,17.0,45,0.00,,OVC021,0.00,0.00,VWS V14.01,2013-02-18 01:20:00,
2013-02-17 20:25:00,19.8,1.9,29.50,WNW,288,11.0,26.0,45,0.00,,OVC021,0.00,0.00,VWS V14.01,2013-02-18 01:25:00,
2013-02-17 20:30:00,19.7,2.3,29.50,NW,317,17.0,20.0,46,0.00,,OVC021,0.00,0.00,VWS V14.01,2013-02-18 01:30:00,
2013-02-17 20:35:00,19.7,2.3,29.50,WNW,292,8.0,17.0,46,0.00,,OVC021,0.00,0.00,VWS V14.01,2013-02-18 01:35:00,
2013-02-17 20:40:00,19.5,1.6,29.51,NW,317,10.0,18.0,45,0.00,,OVC021,0.00,0.00,VWS V14.01,2013-02-18 01:40:00,
2013-02-17 20:45:00,19.5,1.1,29.51,WNW,299,10.0,24.0,44,0.00,,OVC021,0.00,0.00,VWS V14.01,2013-02-18 01:45:00,
2013-02-17 20:50:00,19.5,1.1,29.51,West,280,13.0,23.0,44,0.00,,OVC021,0.00,0.00,VWS V14.01,2013-02-18 01:50:00,
2013-02-17 20:55:00,19.3,1.0,29.52,WNW,290,17.0,26.0,44,0.00,,OVC021,0.00,0.00,VWS V14.01,2013-02-18 01:55:00,
2013-02-17 21:00:00,19.2,0.9,29.52,NW,306,7.0,20.0,44,0.00,,OVC021,0.00,0.00,VWS V14.01,2013-02-18 02:00:00,
2013-02-17 21:05:00,19.1,0.8,29.53,NW,317,13.0,21.0,44,0.00,,OVC021,0.00,0.00,VWS V14.01,2013-02-18 02:05:00,
2013-02-17 21:10:00,19.0,0.7,29.53,West,267,6.0,24.0,44,0.00,,OVC021,0.00,0.00,VWS V14.01,2013-02-18 02:10:00,
2013-02-17 21:15:00,18.9,0.6,29.53,WNW,302,7.0,20.0,44,0.00,,OVC021,0.00,0.00,VWS V14.01,2013-02-18 02:15:00,
2013-02-17 21:20:00,18.8,0.5,29.54,NNW,328,16.0,30.0,44,0.00,,OVC021,0.00,0.00,VWS V14.01,2013-02-18 02:20:00,
2013-02-17 21:25:00,18.7,0.4,29.54,NNW,344,13.0,31.0,44,0.00,,OVC021,0.00,0.00,VWS V14.01,2013-02-18 02:25:00,
2013-02-17 21:30:00,18.6,0.3,29.54,NW,306,13.0,21.0,44,0.00,,OVC021,0.00,0.00,VWS V14.01,2013-02-18 02:30:00,
2013-02-17 21:35:00,18.5,0.2,29.55,NW,325,10.0,25.0,44,0.00,,OVC021,0.00,0.00,VWS V14.01,2013-02-18 02:35:00,
2013-02-17 21:40:00,18.3,0.1,29.55,NW,311,16.0,25.0,44,0.00,,OVC021,0.00,0.00,VWS V14.01,2013-02-18 02:40:00,
2013-02-17 21:45:00,18.3,0.1,29.55,NW,326,9.0,27.0,44,0.00,,OVC021,0.00,0.00,VWS V14.01,2013-02-18 02:45:00,
2013-02-17 21:50:00,18.1,-0.1,29.56,NW,305,8.0,28.0,44,0.00,,OVC021,0.00,0.00,VWS V14.01,2013-02-18 02:50:00,
2013-02-17 21:55:00,18.1,-0.1,29.56,NNW,343,19.0,29.0,44,0.00,,OVC021,0.00,0.00,VWS V14.01,2013-02-18 02:55:00,
2013-02-17 22:00:00,17.9,-0.3,29.57,NW,304,5.0,29.0,44,0.00,,OVC021,0.00,0.00,VWS V14.01,2013-02-18 03:00:00,
2013-02-17 22:05:00,17.8,0.1,29.57,NNW,331,9.0,15.0,45,0.00,,OVC021,0.00,0.00,VWS V14.01,2013-02-18 03:05:00,
2013-02-17 22:10:00,17.7,0.4,29.57,NW,305,20.0,24.0,46,0.00,,OVC021,0.00,0.00,VWS V14.01,2013-02-18 03:10:00,
2013-02-17 22:15:00,17.6,-0.1,29.57,NW,310,11.0,22.0,45,0.00,,OVC021,0.00,0.00,VWS V14.01,2013-02-18 03:15:00,
2013-02-17 22:20:00,17.5,-0.2,29.58,WNW,301,11.0,26.0,45,0.00,,OVC021,0.00,0.00,VWS V14.01,2013-02-18 03:20:00,
2013-02-17 22:25:00,17.4,-0.3,29.58,NW,306,16.0,29.0,45,0.00,,OVC021,0.00,0.00,VWS V14.01,2013-02-18 03:25:00,
2013-02-17 22:30:00,17.3,-0.4,29.58,NW,317,13.0,22.0,45,0.00,,OVC021,0.00,0.00,VWS V14.01,2013-02-18 03:30:00,
2013-02-17 22:35:00,17.1,-0.1,29.58,WNW,287,8.0,22.0,46,0.00,,OVC021,0.00,0.00,VWS V14.01,2013-02-18 03:35:00,
2013-02-17 22:40:00,16.9,-0.3,29.58,West,269,18.0,22.0,46,0.00,,OVC021,0.00,0.00,VWS V14.01,2013-02-18 03:40:00,
2013-02-17 22:45:00,16.7,0.0,29.59,West,275,12.0,29.0,47,0.00,,OVC021,0.00,0.00,VWS V14.01,2013-02-18 03:45:00,
2013-02-17 22:50:00,16.6,-0.1,29.59,WNW,294,9.0,25.0,47,0.00,,OVC021,0.00,0.00,VWS V14.01,2013-02-18 03:50:00,
2013-02-17 22:55:00,16.5,-0.2,29.59,NW,307,6.0,24.0,47,0.00,,OVC021,0.00,0.00,VWS V14.01,2013-02-18 03:55:00,
2013-02-17 23:00:00,16.4,-0.3,29.60,NNW,331,11.0,18.0,47,0.00,,OVC021,0.00,0.00,VWS V14.01,2013-02-18 04:00:00,
2013-02-17 23:05:00,16.3,0.1,29.59,West,268,11.0,24.0,48,0.00,,OVC021,0.00,0.00,VWS V14.01,2013-02-18 04:05:00,
2013-02-17 23:10:00,16.2,0.4,29.60,WNW,296,13.0,20.0,49,0.00,,OVC021,0.00,0.00,VWS V14.01,2013-02-18 04:10:00,
2013-02-17 23:15:00,16.1,0.3,29.60,NNW,334,12.0,26.0,49,0.00,,OVC021,0.00,0.00,VWS V14.01,2013-02-18 04:15:00,
2013-02-17 23:20:00,16.1,0.3,29.60,WNW,289,20.0,24.0,49,0.00,,OVC021,0.00,0.00,VWS V14.01,2013-02-18 04:20:00,
2013-02-17 23:25:00,16.0,0.2,29.60,WNW,294,17.0,30.0,49,0.00,,OVC021,0.00,0.00,VWS V14.01,2013-02-18 04:25:00,
2013-02-17 23:30:00,15.9,0.1,29.61,West,279,8.0,20.0,49,0.00,,OVC021,0.00,0.00,VWS V14.01,2013-02-18 04:30:00,
2013-02-17 23:35:00,15.9,0.1,29.60,NW,315,10.0,26.0,49,0.00,,OVC021,0.00,0.00,VWS V14.01,2013-02-18 04:35:00,
2013-02-17 23:40:00,15.8,0.0,29.61,NW,313,9.0,22.0,49,0.00,,OVC021,0.00,0.00,VWS V14.01,2013-02-18 04:40:00,
2013-02-17 23:45:00,15.8,0.0,29.60,NNW,333,18.0,26.0,49,0.00,,OVC021,0.00,0.00,VWS V14.01,2013-02-18 04:45:00,
2013-02-17 23:50:00,15.8,0.0,29.61,NW,313,27.0,27.0,49,0.00,,OVC021,0.00,0.00,VWS V14.01,2013-02-18 04:50:00,
2013-02-17 23:55:00,15.7,0.4,29.61,NNW,342,11.0,28.0,50,0.00,,OVC021,0.00,0.00,VWS V14.01,2013-02-18 04:55:00,